Time;durP1;ratioP1;P1;durP2;ratioP2;P2;SDS_P1;SDS_P2;PMS_P1;PMS_P2;Temp;Humidity;BMP_temperature;BMP_pressure;BME280_temperature;BME280_humidity;BME280_pressure;Samples;Min_cycle;Max_cycle;Signal;HPM_P1;HPM_P2
2021/06/18 00:01:24;;;;;;;10.73;6.83;;;23.30;99.90;;;;;;4972430;28;20212;-68
2021/06/18 00:03:51;;;;;;;9.50;7.07;;;23.30;99.90;;;;;;4972902;28;20577;-68
2021/06/18 00:06:18;;;;;;;12.53;6.87;;;23.20;99.90;;;;;;4972804;28;20235;-69
2021/06/18 00:08:45;;;;;;;7.63;6.03;;;23.30;99.90;;;;;;4972781;28;20247;-69
2021/06/18 00:11:11;;;;;;;9.17;7.27;;;23.20;99.90;;;;;;4972434;28;20216;-69
2021/06/18 00:13:39;;;;;;;10.37;7.13;;;23.10;99.90;;;;;;4972502;28;20208;-69
2021/06/18 00:16:06;;;;;;;14.20;7.53;;;23.20;99.90;;;;;;4972316;28;20215;-69
2021/06/18 00:18:34;;;;;;;10.77;7.23;;;23.10;99.90;;;;;;4972477;28;20228;-68
2021/06/18 00:21:01;;;;;;;11.90;7.27;;;23.00;99.90;;;;;;4972414;28;20228;-68
2021/06/18 00:23:27;;;;;;;13.63;7.60;;;23.00;99.90;;;;;;4972587;28;20216;-68
2021/06/18 00:25:54;;;;;;;15.90;7.23;;;22.90;99.90;;;;;;4972519;28;20213;-69
2021/06/18 00:28:20;;;;;;;9.83;7.47;;;22.90;99.90;;;;;;4972400;28;20236;-69
2021/06/18 00:30:48;;;;;;;12.13;7.10;;;22.80;99.90;;;;;;4971883;28;20200;-69
2021/06/18 00:33:15;;;;;;;10.03;6.90;;;22.90;99.90;;;;;;4972629;28;20590;-68
2021/06/18 00:35:42;;;;;;;13.40;7.20;;;22.80;99.90;;;;;;4972127;28;20701;-69
2021/06/18 00:38:08;;;;;;;11.57;7.43;;;22.70;99.90;;;;;;4972359;28;20229;-69
2021/06/18 00:40:35;;;;;;;8.13;7.10;;;22.70;99.90;;;;;;4971894;28;20620;-68
2021/06/18 00:43:02;;;;;;;10.37;7.30;;;22.70;99.90;;;;;;4972138;28;20238;-69
2021/06/18 00:45:29;;;;;;;9.83;7.90;;;22.60;99.90;;;;;;4971921;28;20208;-69
2021/06/18 00:47:59;;;;;;;11.90;6.90;;;22.60;99.90;;;;;;4972016;28;20716;-68
2021/06/18 00:50:27;;;;;;;10.27;7.40;;;22.60;99.90;;;;;;4972138;28;20239;-69
2021/06/18 00:52:54;;;;;;;12.43;6.70;;;22.60;99.90;;;;;;4971996;28;20582;-68
2021/06/18 00:55:21;;;;;;;13.60;7.97;;;22.60;99.90;;;;;;4971676;28;20208;-69
2021/06/18 00:57:48;;;;;;;12.67;7.47;;;22.60;99.90;;;;;;4971573;28;20603;-69
2021/06/18 01:00:16;;;;;;;9.73;7.43;;;22.60;99.90;;;;;;4971842;28;20240;-68
2021/06/18 01:02:42;;;;;;;11.37;7.43;;;22.60;99.90;;;;;;4971893;28;20213;-69
2021/06/18 01:05:13;;;;;;;9.00;7.17;;;22.60;99.90;;;;;;4976878;28;20205;-69
2021/06/18 01:07:48;;;;;;;10.87;7.07;;;22.60;99.90;;;;;;4976807;28;20228;-68
2021/06/18 01:10:21;;;;;;;13.23;7.40;;;22.60;99.90;;;;;;4975244;28;20204;-69
2021/06/18 01:12:54;;;;;;;9.93;7.03;;;22.50;99.90;;;;;;4973026;28;20231;-68
2021/06/18 01:15:26;;;;;;;9.03;7.20;;;22.50;99.90;;;;;;4977846;28;20212;-69
2021/06/18 01:18:00;;;;;;;11.47;7.57;;;22.40;99.90;;;;;;4987492;28;20238;-68
2021/06/18 01:20:43;;;;;;;10.00;7.90;;;22.30;99.90;;;;;;4985409;28;20235;-68
2021/06/18 01:23:23;;;;;;;9.50;7.33;;;22.30;99.90;;;;;;4974731;28;20204;-69
2021/06/18 01:25:53;;;;;;;9.43;7.47;;;22.30;99.90;;;;;;4971715;28;20212;-68
2021/06/18 01:28:39;;;;;;;13.07;7.90;;;22.20;99.90;;;;;;4971632;28;20244;-69
2021/06/18 01:31:07;;;;;;;12.77;7.93;;;22.20;99.90;;;;;;4971334;28;20200;-69
2021/06/18 01:33:37;;;;;;;9.93;8.00;;;22.20;99.90;;;;;;4971584;28;20208;-69
2021/06/18 01:36:08;;;;;;;12.20;7.87;;;22.20;99.90;;;;;;4971302;28;20208;-69
2021/06/18 01:38:39;;;;;;;11.43;8.30;;;22.10;99.90;;;;;;4971226;28;20238;-68
2021/06/18 01:41:12;;;;;;;14.23;8.50;;;22.10;99.90;;;;;;4971340;28;20238;-68
2021/06/18 01:43:42;;;;;;;12.27;8.40;;;22.00;99.90;;;;;;4970967;28;20204;-68
2021/06/18 01:46:11;;;;;;;12.37;8.83;;;22.00;99.90;;;;;;4971605;28;20213;-68
2021/06/18 01:48:38;;;;;;;13.20;8.73;;;22.00;99.90;;;;;;4971167;28;20236;-69
2021/06/18 01:51:06;;;;;;;11.20;8.13;;;21.90;99.90;;;;;;4971019;28;20558;-69
2021/06/18 01:53:36;;;;;;;14.80;8.73;;;21.90;99.90;;;;;;4971251;28;20677;-69
2021/06/18 01:56:04;;;;;;;13.10;8.07;;;21.90;99.90;;;;;;4971382;28;20281;-68
2021/06/18 01:58:32;;;;;;;14.60;8.27;;;22.00;99.90;;;;;;4971741;28;20600;-69
2021/06/18 02:01:01;;;;;;;11.37;7.90;;;22.00;99.90;;;;;;4971296;28;20232;-69
2021/06/18 02:03:29;;;;;;;10.37;8.17;;;22.00;99.90;;;;;;4972021;28;20208;-68
2021/06/18 02:06:01;;;;;;;16.40;9.13;;;21.90;99.90;;;;;;4971761;28;20208;-69
2021/06/18 02:08:28;;;;;;;17.70;8.83;;;21.90;99.90;;;;;;4970705;28;20232;-68
2021/06/18 02:10:56;;;;;;;10.93;8.63;;;21.90;99.90;;;;;;4970947;28;20571;-67
2021/06/18 02:13:24;;;;;;;13.77;8.63;;;21.90;99.90;;;;;;4971026;28;20712;-66
2021/06/18 02:15:54;;;;;;;10.70;8.87;;;21.90;99.90;;;;;;4970711;28;20209;-69
2021/06/18 02:18:25;;;;;;;10.57;8.50;;;21.90;99.90;;;;;;4970801;28;20225;-69
2021/06/18 02:20:56;;;;;;;15.53;9.40;;;21.90;99.90;;;;;;4970435;28;20397;-69
2021/06/18 02:23:24;;;;;;;12.37;9.93;;;21.90;99.90;;;;;;4970627;28;20217;-68
2021/06/18 02:25:51;;;;;;;14.57;9.90;;;21.90;99.90;;;;;;4970986;28;20212;-69
2021/06/18 02:28:21;;;;;;;14.50;9.63;;;21.90;99.90;;;;;;4970920;28;20232;-69
2021/06/18 02:30:48;;;;;;;12.87;9.80;;;21.80;99.90;;;;;;4970495;28;20679;-68
2021/06/18 02:33:15;;;;;;;14.97;10.87;;;21.80;99.90;;;;;;4970638;28;20205;-69
2021/06/18 02:35:44;;;;;;;13.47;10.30;;;21.70;99.90;;;;;;4970727;28;20215;-70
2021/06/18 02:38:12;;;;;;;17.03;10.90;;;21.70;99.90;;;;;;4970341;28;20596;-70
2021/06/18 02:40:40;;;;;;;14.23;10.83;;;21.70;99.90;;;;;;4970173;28;20319;-69
2021/06/18 02:43:07;;;;;;;14.27;10.40;;;21.70;99.90;;;;;;4970311;28;20216;-69
2021/06/18 02:45:35;;;;;;;14.10;10.83;;;21.70;99.90;;;;;;4970205;28;20228;-67
2021/06/18 02:48:06;;;;;;;14.60;11.03;;;21.70;99.90;;;;;;4970042;28;20255;-69
2021/06/18 02:50:39;;;;;;;19.23;11.37;;;21.70;99.90;;;;;;4970134;28;20661;-68
2021/06/18 02:53:17;;;;;;;17.50;11.33;;;21.60;99.90;;;;;;4970330;28;20213;-68
2021/06/18 02:55:51;;;;;;;14.93;12.17;;;21.70;99.90;;;;;;4970301;28;20247;-68
2021/06/18 02:58:21;;;;;;;13.93;12.40;;;21.70;99.90;;;;;;4970061;28;20250;-69
2021/06/18 03:00:49;;;;;;;20.83;12.37;;;21.60;99.90;;;;;;4969897;28;20310;-69
2021/06/18 03:03:20;;;;;;;14.90;11.90;;;21.60;99.90;;;;;;4970413;28;20220;-68
2021/06/18 03:05:48;;;;;;;15.40;11.37;;;21.60;99.90;;;;;;4970176;28;20215;-65
2021/06/18 03:08:18;;;;;;;15.47;11.80;;;21.60;99.90;;;;;;4969963;28;20228;-66
2021/06/18 03:10:49;;;;;;;18.83;12.60;;;21.50;99.90;;;;;;4969758;28;20906;-67
2021/06/18 03:13:20;;;;;;;16.93;12.47;;;21.50;99.90;;;;;;4969683;28;20739;-66
2021/06/18 03:15:48;;;;;;;14.63;12.20;;;21.50;99.90;;;;;;4970301;28;20234;-66
2021/06/18 03:18:18;;;;;;;18.63;12.57;;;21.50;99.90;;;;;;4969602;28;20232;-65
2021/06/18 03:20:46;;;;;;;17.13;12.57;;;21.50;99.90;;;;;;4969928;28;20588;-67
2021/06/18 03:23:14;;;;;;;17.77;13.13;;;21.50;99.90;;;;;;4969969;28;20216;-66
2021/06/18 03:25:43;;;;;;;18.03;12.97;;;21.50;99.90;;;;;;4969595;28;20248;-66
2021/06/18 03:28:12;;;;;;;16.00;13.47;;;21.50;99.90;;;;;;4969734;28;20326;-66
2021/06/18 03:30:38;;;;;;;17.13;13.43;;;21.50;99.90;;;;;;4969618;28;20216;-67
2021/06/18 03:33:07;;;;;;;17.10;13.47;;;21.60;99.90;;;;;;4970030;28;20216;-66
2021/06/18 03:35:35;;;;;;;16.27;12.87;;;21.50;99.90;;;;;;4969944;28;20627;-67
2021/06/18 03:38:03;;;;;;;21.40;13.40;;;21.50;99.90;;;;;;4969714;28;20232;-68
2021/06/18 03:40:31;;;;;;;15.50;13.90;;;21.60;99.90;;;;;;4969151;28;20228;-68
2021/06/18 03:42:59;;;;;;;16.93;13.70;;;21.60;99.90;;;;;;4969549;28;20215;-69
2021/06/18 03:45:26;;;;;;;18.40;13.90;;;21.60;99.90;;;;;;4969418;28;20208;-69
2021/06/18 03:47:54;;;;;;;22.10;14.50;;;21.60;99.90;;;;;;4969440;28;20236;-69
2021/06/18 03:50:22;;;;;;;17.97;14.43;;;21.60;99.90;;;;;;4969318;28;20211;-69
2021/06/18 03:52:50;;;;;;;15.80;14.00;;;21.60;99.90;;;;;;4969476;28;20208;-69
2021/06/18 03:55:17;;;;;;;22.80;13.47;;;21.70;99.90;;;;;;4969526;28;20580;-69
2021/06/18 03:57:48;;;;;;;18.40;12.90;;;21.70;99.90;;;;;;4969592;28;20228;-68
2021/06/18 04:00:17;;;;;;;15.97;13.47;;;21.80;99.90;;;;;;4969177;28;20238;-69
2021/06/18 04:02:44;;;;;;;15.37;12.40;;;21.80;99.90;;;;;;4969269;28;20755;-69
2021/06/18 04:05:16;;;;;;;15.37;12.03;;;21.90;99.90;;;;;;4969429;28;20212;-69
2021/06/18 04:07:46;;;;;;;16.13;12.73;;;21.90;99.90;;;;;;4969304;28;20446;-68
2021/06/18 04:10:13;;;;;;;16.57;12.67;;;22.00;99.90;;;;;;4969125;28;20212;-69
2021/06/18 04:12:41;;;;;;;15.70;12.43;;;22.00;99.90;;;;;;4969164;28;20233;-69
2021/06/18 04:15:09;;;;;;;22.00;13.07;;;22.00;99.90;;;;;;4969186;28;20215;-68
2021/06/18 04:17:39;;;;;;;20.20;13.97;;;22.10;99.90;;;;;;4968985;28;20233;-69
2021/06/18 04:20:07;;;;;;;17.90;13.13;;;22.10;99.90;;;;;;4969090;28;20665;-69
2021/06/18 04:22:35;;;;;;;17.97;13.37;;;22.10;99.90;;;;;;4969179;28;20216;-69
2021/06/18 04:25:03;;;;;;;20.80;13.40;;;22.10;99.90;;;;;;4967322;28;20250;-69
2021/06/18 04:27:30;;;;;;;16.07;12.03;;;22.20;99.90;;;;;;4968890;28;20736;-69
2021/06/18 04:29:56;;;;;;;17.93;11.70;;;22.20;99.90;;;;;;4969670;28;20219;-68
2021/06/18 04:32:23;;;;;;;16.73;12.07;;;22.30;99.90;;;;;;4971421;28;20205;-69
2021/06/18 04:34:51;;;;;;;15.60;12.43;;;22.40;99.90;;;;;;4972539;28;20211;-69
2021/06/18 04:37:18;;;;;;;18.77;14.43;;;22.40;99.90;;;;;;4971507;28;20233;-69
2021/06/18 04:39:44;;;;;;;20.00;13.60;;;22.40;99.90;;;;;;4972099;28;20254;-69
2021/06/18 04:42:11;;;;;;;17.43;13.93;;;22.50;99.90;;;;;;4971813;28;20232;-65
2021/06/18 04:44:38;;;;;;;18.43;12.93;;;22.40;99.90;;;;;;4969785;28;20204;-65
2021/06/18 04:47:04;;;;;;;15.80;13.43;;;22.50;99.90;;;;;;4971643;28;20243;-65
2021/06/18 04:49:31;;;;;;;19.03;12.87;;;22.60;99.90;;;;;;4971938;28;20591;-65
2021/06/18 04:51:59;;;;;;;19.57;12.47;;;22.60;99.90;;;;;;4971998;28;20254;-65
2021/06/18 04:54:27;;;;;;;21.27;14.93;;;22.80;99.90;;;;;;4971852;28;20223;-65
2021/06/18 04:56:54;;;;;;;17.33;12.30;;;22.90;99.90;;;;;;4971900;28;20217;-68
2021/06/18 04:59:21;;;;;;;18.60;12.90;;;23.00;99.90;;;;;;4971447;28;20219;-65
2021/06/18 05:01:47;;;;;;;14.77;11.43;;;23.10;99.90;;;;;;4971611;28;20228;-65
2021/06/18 05:04:14;;;;;;;16.53;13.07;;;23.20;99.90;;;;;;4971537;28;20212;-65
2021/06/18 05:06:41;;;;;;;15.73;11.90;;;23.20;99.90;;;;;;4971711;28;20592;-65
2021/06/18 05:09:09;;;;;;;20.43;13.33;;;23.20;99.90;;;;;;4971636;28;20212;-65
2021/06/18 05:11:36;;;;;;;15.40;10.83;;;23.30;99.90;;;;;;4971533;28;20621;-65
2021/06/18 05:14:02;;;;;;;15.90;12.17;;;23.30;99.90;;;;;;4971286;28;20212;-65
2021/06/18 05:16:29;;;;;;;20.33;13.73;;;23.30;99.90;;;;;;4971725;28;20208;-67
2021/06/18 05:18:55;;;;;;;16.40;12.87;;;23.40;99.90;;;;;;4969552;28;20228;-67
2021/06/18 05:21:22;;;;;;;16.93;13.20;;;23.40;99.90;;;;;;4971889;28;20216;-65
2021/06/18 05:23:49;;;;;;;17.13;12.23;;;23.50;99.90;;;;;;4974947;28;20209;-67
2021/06/18 05:26:17;;;;;;;18.83;13.33;;;23.50;99.90;;;;;;4968033;28;20219;-65
2021/06/18 05:28:43;;;;;;;18.20;13.93;;;23.50;99.90;;;;;;4971445;28;20247;-66
2021/06/18 05:31:10;;;;;;;16.57;14.67;;;23.40;99.90;;;;;;4977323;28;20200;-66
2021/06/18 05:33:37;;;;;;;21.97;13.10;;;23.40;99.90;;;;;;4981931;28;20212;-67
2021/06/18 05:36:04;;;;;;;19.57;13.90;;;23.40;99.90;;;;;;4979456;28;20212;-67
2021/06/18 05:38:31;;;;;;;20.50;14.07;;;23.50;99.90;;;;;;4970882;28;20236;-66
2021/06/18 05:40:58;;;;;;;17.07;12.47;;;23.50;99.90;;;;;;4969986;28;20221;-66
2021/06/18 05:43:26;;;;;;;16.77;14.57;;;23.50;99.90;;;;;;4970111;28;20212;-64
2021/06/18 05:45:52;;;;;;;21.00;16.40;;;23.50;99.90;;;;;;4969935;28;20212;-64
2021/06/18 05:48:19;;;;;;;21.17;13.83;;;23.50;99.90;;;;;;4970806;28;20240;-66
2021/06/18 05:50:46;;;;;;;16.57;14.70;;;23.50;99.90;;;;;;4970730;28;20217;-64
2021/06/18 05:53:12;;;;;;;21.13;16.13;;;23.60;99.90;;;;;;4970293;28;20209;-66
2021/06/18 05:55:39;;;;;;;22.27;15.77;;;23.80;99.90;;;;;;4970532;28;20694;-66
2021/06/18 05:58:06;;;;;;;21.70;16.33;;;23.80;99.90;;;;;;4970681;28;20232;-66
2021/06/18 06:00:34;;;;;;;19.70;16.67;;;23.90;99.90;;;;;;4970521;28;20256;-65
2021/06/18 06:03:01;;;;;;;18.23;14.57;;;24.00;99.90;;;;;;4970166;28;20216;-65
2021/06/18 06:05:27;;;;;;;19.37;14.63;;;24.10;99.90;;;;;;4970581;28;20212;-64
2021/06/18 06:07:54;;;;;;;19.40;16.97;;;24.10;99.90;;;;;;4970451;28;20232;-65
2021/06/18 06:10:21;;;;;;;23.60;16.27;;;24.20;99.90;;;;;;4969986;28;20208;-64
2021/06/18 06:12:48;;;;;;;21.90;15.83;;;24.30;99.90;;;;;;4970245;28;20212;-65
2021/06/18 06:15:15;;;;;;;17.93;14.63;;;24.40;99.90;;;;;;4970398;28;20231;-64
2021/06/18 06:17:44;;;;;;;21.03;15.07;;;24.50;99.90;;;;;;4970303;28;20235;-65
2021/06/18 06:20:12;;;;;;;20.57;14.77;;;24.60;99.90;;;;;;4970132;28;20219;-66
2021/06/18 06:22:38;;;;;;;19.50;14.63;;;24.70;99.90;;;;;;4969802;28;20232;-65
2021/06/18 06:25:05;;;;;;;17.90;14.50;;;24.80;99.90;;;;;;4970208;28;20212;-66
2021/06/18 06:27:32;;;;;;;25.10;15.00;;;24.80;99.90;;;;;;4970144;28;20233;-66
2021/06/18 06:29:59;;;;;;;20.10;15.17;;;24.80;99.90;;;;;;4970075;28;20220;-66
2021/06/18 06:32:25;;;;;;;21.47;16.27;;;24.90;99.90;;;;;;4969877;28;20216;-65
2021/06/18 06:34:53;;;;;;;21.87;14.33;;;24.90;99.90;;;;;;4970107;28;20208;-66
2021/06/18 06:37:20;;;;;;;19.23;14.23;;;25.00;99.90;;;;;;4969573;28;20228;-65
2021/06/18 06:39:46;;;;;;;20.30;14.40;;;25.20;99.90;;;;;;4970147;28;20208;-65
2021/06/18 06:42:13;;;;;;;16.00;13.40;;;25.30;99.90;;;;;;4969480;28;20228;-66
2021/06/18 06:44:40;;;;;;;22.17;13.93;;;25.50;99.90;;;;;;4970206;28;20208;-64
2021/06/18 06:47:07;;;;;;;16.57;14.13;;;25.50;99.90;;;;;;4969810;28;20234;-65
2021/06/18 06:49:33;;;;;;;18.90;15.50;;;25.40;99.90;;;;;;4969766;28;20223;-65
2021/06/18 06:52:01;;;;;;;16.80;15.00;;;25.40;99.90;;;;;;4969173;28;20237;-64
2021/06/18 06:54:28;;;;;;;15.73;13.67;;;25.50;99.90;;;;;;4969510;28;20209;-65
2021/06/18 06:56:57;;;;;;;20.00;14.23;;;25.60;99.90;;;;;;4969842;28;21537;-66
2021/06/18 06:59:23;;;;;;;19.80;14.03;;;25.70;99.90;;;;;;4969737;28;20557;-64
2021/06/18 07:01:50;;;;;;;16.93;13.87;;;25.90;99.90;;;;;;4969271;28;20220;-65
2021/06/18 07:04:17;;;;;;;16.40;13.23;;;26.00;99.90;;;;;;4969716;28;20221;-65
2021/06/18 07:06:44;;;;;;;19.77;13.97;;;26.10;99.90;;;;;;4969619;28;20684;-65
2021/06/18 07:09:14;;;;;;;19.83;13.40;;;26.20;99.90;;;;;;4969437;28;20585;-65
2021/06/18 07:11:40;;;;;;;19.40;14.20;;;26.30;99.90;;;;;;4969548;28;20564;-66
2021/06/18 07:14:07;;;;;;;17.07;13.63;;;26.40;99.90;;;;;;4969371;28;20215;-67
2021/06/18 07:16:34;;;;;;;19.03;14.03;;;26.40;99.90;;;;;;4969464;28;20208;-67
2021/06/18 07:19:00;;;;;;;18.80;13.80;;;26.50;99.90;;;;;;4968869;28;20823;-66
2021/06/18 07:21:27;;;;;;;18.90;14.10;;;26.70;99.90;;;;;;4969584;28;20600;-67
2021/06/18 07:23:54;;;;;;;20.53;13.63;;;26.70;99.90;;;;;;4980979;28;20204;-67
2021/06/18 07:26:22;;;;;;;20.17;13.90;;;26.60;99.90;;;;;;4971285;28;20247;-65
2021/06/18 07:28:48;;;;;;;21.40;14.53;;;26.70;99.90;;;;;;4969523;28;20320;-64
2021/06/18 07:31:15;;;;;;;21.27;12.77;;;26.70;99.90;;;;;;4969295;28;20219;-65
2021/06/18 07:33:42;;;;;;;17.47;13.40;;;27.00;99.90;;;;;;4969074;28;20585;-65
2021/06/18 07:36:09;;;;;;;15.40;13.13;;;27.10;99.90;;;;;;4969346;28;20581;-64
2021/06/18 07:38:36;;;;;;;19.23;12.83;;;27.30;99.90;;;;;;4968710;28;20235;-64
2021/06/18 07:41:03;;;;;;;20.57;14.07;;;27.40;99.90;;;;;;4969460;28;20215;-64
2021/06/18 07:43:31;;;;;;;19.23;13.27;;;27.50;99.90;;;;;;4969068;28;20232;-65
2021/06/18 07:45:58;;;;;;;15.80;11.97;;;27.50;99.90;;;;;;4969008;28;20219;-65
2021/06/18 07:48:25;;;;;;;21.50;15.27;;;27.60;99.90;;;;;;4968745;28;20239;-65
2021/06/18 07:50:52;;;;;;;19.67;14.33;;;27.70;99.90;;;;;;4968958;28;20673;-65
2021/06/18 07:53:19;;;;;;;17.23;13.27;;;27.80;99.90;;;;;;4969097;28;20215;-65
2021/06/18 07:55:47;;;;;;;17.53;13.97;;;28.00;99.90;;;;;;4969251;28;20222;-65
2021/06/18 07:58:14;;;;;;;17.83;13.47;;;28.10;99.90;;;;;;4969061;28;20239;-66
2021/06/18 08:00:42;;;;;;;23.43;14.30;;;28.20;99.90;;;;;;4968668;28;20219;-65
2021/06/18 08:03:09;;;;;;;18.37;12.57;;;28.30;99.90;;;;;;4968798;28;20231;-65
2021/06/18 08:05:35;;;;;;;20.00;12.20;;;28.40;99.90;;;;;;4970640;28;20208;-65
2021/06/18 08:08:02;;;;;;;14.97;11.70;;;28.60;99.90;;;;;;4972626;28;20232;-64
2021/06/18 08:10:30;;;;;;;18.70;12.90;;;28.90;99.90;;;;;;4972242;28;20227;-65
2021/06/18 08:12:57;;;;;;;18.43;12.03;;;29.00;99.90;;;;;;4972138;28;20240;-64
2021/06/18 08:15:24;;;;;;;16.90;13.00;;;29.10;99.90;;;;;;4971969;28;20209;-64
2021/06/18 08:17:52;;;;;;;18.77;14.63;;;29.10;99.90;;;;;;4972144;28;20717;-63
2021/06/18 08:20:20;;;;;;;21.27;13.47;;;28.70;99.90;;;;;;4971956;28;20209;-64
2021/06/18 08:22:48;;;;;;;18.37;11.97;;;28.50;99.90;;;;;;4971919;28;20251;-64
2021/06/18 08:25:15;;;;;;;18.33;13.50;;;28.80;99.90;;;;;;4971925;28;20240;-66
2021/06/18 08:27:42;;;;;;;17.63;13.87;;;29.10;99.90;;;;;;4972495;28;20232;-67
2021/06/18 08:30:10;;;;;;;16.77;14.43;;;29.30;99.90;;;;;;4972772;28;20204;-66
2021/06/18 08:32:38;;;;;;;22.00;15.10;;;29.10;99.90;;;;;;4972778;28;20204;-66
2021/06/18 08:35:06;;;;;;;18.83;14.17;;;29.20;99.90;;;;;;4972755;28;20212;-66
2021/06/18 08:37:33;;;;;;;19.50;14.67;;;28.90;99.90;;;;;;4972404;28;20225;-65
2021/06/18 08:40:00;;;;;;;18.97;15.03;;;28.30;99.90;;;;;;4972595;28;20219;-66
2021/06/18 08:42:27;;;;;;;19.93;13.53;;;28.10;99.90;;;;;;4972155;28;20227;-67
2021/06/18 08:44:54;;;;;;;16.33;12.37;;;27.80;99.90;;;;;;4972596;28;20215;-65
2021/06/18 08:47:20;;;;;;;20.53;12.13;;;28.10;99.90;;;;;;4972421;28;20236;-65
2021/06/18 08:49:47;;;;;;;15.50;12.27;;;28.50;99.90;;;;;;4972222;28;20212;-65
2021/06/18 08:52:15;;;;;;;17.17;11.00;;;28.60;99.90;;;;;;4972077;28;20212;-64
2021/06/18 08:54:42;;;;;;;15.33;10.90;;;28.90;99.90;;;;;;4972172;28;20204;-65
2021/06/18 08:57:11;;;;;;;17.87;11.63;;;29.20;99.90;;;;;;4972224;28;20236;-63
2021/06/18 08:59:38;;;;;;;18.80;11.93;;;29.40;99.90;;;;;;4972268;28;20216;-66
2021/06/18 09:02:04;;;;;;;14.47;11.60;;;29.20;99.90;;;;;;4971974;28;20233;-65
2021/06/18 09:04:31;;;;;;;16.70;11.52;;;29.50;99.90;;;;;;4972240;28;20262;-66
2021/06/18 09:06:58;;;;;;;17.85;11.65;;;29.80;99.90;;;;;;4971829;28;20239;-65
2021/06/18 09:09:27;;;;;;;19.75;11.25;;;30.20;99.90;;;;;;4971818;28;20212;-65
2021/06/18 09:11:56;;;;;;;20.77;12.55;;;30.20;99.90;;;;;;4972076;28;20215;-66
2021/06/18 09:14:28;;;;;;;14.65;10.80;;;29.50;99.90;;;;;;4972110;28;20292;-66
2021/06/18 09:17:07;;;;;;;18.80;10.47;;;29.20;99.90;;;;;;4971904;28;20204;-70
2021/06/18 09:19:35;;;;;;;11.37;9.40;;;29.40;99.90;;;;;;4972695;28;20192;-67
2021/06/18 09:22:03;;;;;;;17.23;9.73;;;29.40;99.90;;;;;;4971359;28;20748;-67
2021/06/18 09:24:33;;;;;;;10.67;8.50;;;29.40;99.90;;;;;;4972122;28;20217;-67
2021/06/18 09:27:01;;;;;;;11.60;8.60;;;29.30;99.90;;;;;;4971754;28;20240;-67
2021/06/18 09:29:28;;;;;;;13.03;8.83;;;29.20;99.90;;;;;;4971907;28;20220;-67
2021/06/18 09:31:59;;;;;;;13.83;8.50;;;29.40;99.90;;;;;;4971326;28;20590;-67
2021/06/18 09:34:39;;;;;;;15.93;8.30;;;29.50;99.90;;;;;;4971601;28;20302;-67
2021/06/18 09:37:30;;;;;;;18.40;8.10;;;29.40;99.90;;;;;;4979971;28;20301;-67
2021/06/18 09:40:20;;;;;;;13.93;7.65;;;29.70;99.90;;;;;;4981711;28;20296;-67
2021/06/18 09:42:56;;;;;;;20.23;8.80;;;30.00;99.90;;;;;;4979662;28;20243;-65
2021/06/18 09:45:24;;;;;;;13.13;8.38;;;30.30;99.90;;;;;;4974995;28;20212;-65
2021/06/18 09:47:51;;;;;;;12.77;8.30;;;30.40;99.90;;;;;;4974110;28;20228;-69
2021/06/18 09:50:28;;;;;;;14.75;7.88;;;30.40;99.90;;;;;;4983978;28;20205;-66
2021/06/18 09:53:12;;;;;;;12.32;7.28;;;30.30;99.90;;;;;;4982074;28;20220;-67
2021/06/18 09:55:40;;;;;;;10.38;6.82;;;30.40;99.90;;;;;;4973675;28;20241;-66
2021/06/18 09:58:07;;;;;;;14.10;7.22;;;30.50;99.90;;;;;;4971347;28;20243;-68
2021/06/18 10:00:34;;;;;;;10.02;6.20;;;30.50;99.90;;;;;;4971433;28;20587;-66
2021/06/18 10:03:01;;;;;;;8.13;6.07;;;30.60;99.90;;;;;;4971000;28;20855;-65
2021/06/18 10:05:31;;;;;;;14.80;7.10;;;30.50;99.90;;;;;;4971305;28;20299;-67
2021/06/18 10:07:58;;;;;;;14.15;6.53;;;30.60;99.90;;;;;;4971456;28;20978;-65
2021/06/18 10:10:27;;;;;;;13.30;6.20;;;30.60;99.90;;;;;;4971215;28;20209;-66
2021/06/18 10:12:56;;;;;;;9.27;6.68;;;30.60;99.90;;;;;;4970890;28;20235;-65
2021/06/18 10:15:25;;;;;;;8.88;6.38;;;30.50;99.90;;;;;;4970356;28;20291;-64
2021/06/18 10:17:53;;;;;;;11.80;6.30;;;30.60;99.90;;;;;;4970690;28;20235;-66
2021/06/18 10:20:21;;;;;;;13.57;6.63;;;30.50;99.90;;;;;;4970800;28;20216;-65
2021/06/18 10:22:56;;;;;;;12.02;6.25;;;30.60;99.90;;;;;;4970559;28;20228;-67
2021/06/18 10:25:29;;;;;;;9.85;6.47;;;30.60;99.90;;;;;;4971115;28;20212;-67
2021/06/18 10:28:05;;;;;;;17.42;6.55;;;30.60;99.90;;;;;;4970300;28;20236;-68
2021/06/18 10:30:34;;;;;;;18.00;6.45;;;30.50;99.90;;;;;;4970799;28;20302;-65
2021/06/18 10:33:02;;;;;;;12.30;6.35;;;30.50;99.90;;;;;;4970704;28;20675;-65
2021/06/18 10:35:49;;;;;;;11.82;6.22;;;30.70;99.90;;;;;;4971120;28;20220;-64
2021/06/18 10:38:25;;;;;;;11.38;6.03;;;30.90;99.90;;;;;;4970755;28;20224;-65
2021/06/18 10:40:54;;;;;;;13.00;6.10;;;31.20;99.90;;;;;;4971262;28;20585;-65
2021/06/18 10:43:23;;;;;;;16.00;5.90;;;31.50;99.90;;;;;;4970403;28;20232;-67
2021/06/18 10:46:07;;;;;;;15.13;5.78;;;31.50;99.90;;;;;;4970569;28;20286;-63
2021/06/18 10:48:55;;;;;;;11.45;6.28;;;31.40;99.90;;;;;;4970319;28;20704;-64
2021/06/18 10:51:33;;;;;;;9.57;5.88;;;31.30;99.90;;;;;;4970320;28;20240;-66
2021/06/18 10:54:03;;;;;;;12.85;6.60;;;31.20;99.90;;;;;;4970485;28;20208;-65
2021/06/18 10:56:58;;;;;;;11.02;6.43;;;31.20;99.90;;;;;;4970537;28;20250;-64
2021/06/18 10:59:31;;;;;;;13.18;5.90;;;31.30;99.90;;;;;;4970264;28;20652;-64
2021/06/18 11:01:59;;;;;;;15.57;6.47;;;31.30;99.90;;;;;;4969759;28;20688;-65
2021/06/18 11:04:41;;;;;;;12.57;6.40;;;31.20;99.90;;;;;;4970320;28;20788;-65
2021/06/18 11:07:22;;;;;;;14.05;6.50;;;31.40;99.90;;;;;;4970521;28;20228;-65
2021/06/18 11:09:49;;;;;;;13.18;6.53;;;31.40;99.90;;;;;;4970173;28;20620;-66
2021/06/18 11:12:45;;;;;;;12.82;6.47;;;31.40;99.90;;;;;;4969700;28;20219;-66
2021/06/18 11:15:42;;;;;;;11.73;6.43;;;31.50;99.90;;;;;;4970233;28;20231;-65
2021/06/18 11:18:18;;;;;;;11.50;6.70;;;31.60;99.90;;;;;;4970101;28;20228;-65
2021/06/18 11:21:03;;;;;;;12.15;6.72;;;31.60;99.90;;;;;;4970360;28;20298;-65
2021/06/18 11:23:36;;;;;;;15.57;7.53;;;31.80;99.90;;;;;;4970238;28;20234;-67
2021/06/18 11:26:22;;;;;;;14.43;7.40;;;31.90;99.90;;;;;;4970113;28;20213;-66
2021/06/18 11:28:51;;;;;;;10.30;6.43;;;32.10;99.90;;;;;;4969873;28;20242;-66
2021/06/18 11:31:22;;;;;;;16.77;7.05;;;32.30;99.90;;;;;;4969728;28;20688;-66
2021/06/18 11:33:54;;;;;;;14.70;6.53;;;32.10;99.90;;;;;;4969985;28;20299;-66
2021/06/18 11:36:48;;;;;;;14.57;6.80;;;32.10;99.90;;;;;;4969980;28;20237;-65
2021/06/18 11:39:17;;;;;;;11.45;6.05;;;32.10;99.90;;;;;;4970996;28;20216;-65
2021/06/18 11:41:49;;;;;;;9.73;6.35;;;32.30;99.90;;;;;;4972725;28;20223;-65
2021/06/18 11:44:20;;;;;;;16.20;6.32;;;32.30;99.90;;;;;;4973246;28;20285;-65
2021/06/18 11:46:51;;;;;;;10.95;6.43;;;32.40;99.90;;;;;;4973423;28;20242;-66
2021/06/18 11:49:21;;;;;;;11.55;5.60;;;32.40;99.90;;;;;;4973200;28;20226;-66
2021/06/18 11:51:48;;;;;;;10.25;5.95;;;32.50;99.90;;;;;;4972683;28;20239;-65
2021/06/18 11:54:30;;;;;;;10.77;6.28;;;32.50;99.90;;;;;;4973273;28;20311;-64
2021/06/18 11:57:01;;;;;;;12.98;5.85;;;32.40;99.90;;;;;;4973079;28;20215;-64
2021/06/18 11:59:28;;;;;;;15.80;7.22;;;32.70;99.90;;;;;;4972952;28;20689;-65
2021/06/18 12:01:56;;;;;;;9.18;4.95;;;32.90;99.90;;;;;;4972774;28;20305;-65
2021/06/18 12:04:22;;;;;;;7.85;3.78;;;32.90;99.90;;;;;;4972696;28;20228;-65
2021/06/18 12:06:49;;;;;;;7.65;4.50;;;33.00;99.90;;;;;;4973056;28;20208;-66
2021/06/18 12:09:18;;;;;;;12.07;4.72;;;33.00;99.90;;;;;;4973178;28;20208;-66
2021/06/18 12:11:47;;;;;;;8.88;5.05;;;33.00;99.90;;;;;;4972574;28;20312;-65
2021/06/18 12:14:15;;;;;;;6.53;4.43;;;33.10;99.90;;;;;;4972829;28;20239;-65
2021/06/18 12:16:43;;;;;;;12.45;4.57;;;33.20;99.90;;;;;;4972858;28;20218;-66
2021/06/18 12:19:26;;;;;;;9.73;4.20;;;33.10;99.90;;;;;;4973114;28;20278;-68
2021/06/18 12:22:05;;;;;;;10.93;4.20;;;33.10;99.90;;;;;;4972534;28;20236;-68
2021/06/18 12:24:35;;;;;;;9.82;4.43;;;33.30;99.90;;;;;;4972904;28;20315;-67
2021/06/18 12:27:05;;;;;;;14.93;3.92;;;33.40;99.90;;;;;;4972679;28;20239;-67
2021/06/18 12:29:32;;;;;;;11.25;3.97;;;33.50;99.90;;;;;;4972578;28;20220;-66
2021/06/18 12:32:00;;;;;;;8.60;3.50;;;33.60;99.90;;;;;;4972557;28;20215;-67
2021/06/18 12:34:29;;;;;;;8.85;3.63;;;33.70;99.90;;;;;;4973148;28;20200;-67
2021/06/18 12:37:06;;;;;;;8.27;3.88;;;33.70;99.90;;;;;;4972425;28;20211;-65
2021/06/18 12:39:48;;;;;;;6.28;3.63;;;33.60;99.90;;;;;;4972579;28;20204;-66
2021/06/18 12:42:23;;;;;;;9.23;3.75;;;33.60;99.90;;;;;;4972186;28;20216;-66
2021/06/18 12:45:06;;;;;;;7.50;4.03;;;33.70;99.90;;;;;;4972617;28;20251;-66